createdAt,value
2022-12-31T00:01:35.842Z,10.16
2022-12-31T00:04:03.288Z,10.23
2022-12-31T00:06:32.563Z,10.18
2022-12-31T00:09:01.892Z,10.24
2022-12-31T00:11:29.967Z,10.18
2022-12-31T00:13:57.557Z,10.21
2022-12-31T00:16:39.894Z,10.16
2022-12-31T00:19:09.778Z,10.15
2022-12-31T00:21:36.947Z,10.16
2022-12-31T00:24:04.558Z,10.23
2022-12-31T00:26:33.057Z,10.23
2022-12-31T00:29:01.309Z,10.22
2022-12-31T00:31:31.553Z,10.21
2022-12-31T00:33:58.927Z,10.23
2022-12-31T00:36:31.974Z,10.20
2022-12-31T00:39:00.205Z,10.15
2022-12-31T00:41:28.203Z,10.18
2022-12-31T00:43:55.131Z,10.15
2022-12-31T00:46:22.219Z,10.17
2022-12-31T00:48:49.769Z,10.11
2022-12-31T00:51:18.532Z,10.09
2022-12-31T00:53:45.854Z,10.12
2022-12-31T00:56:16.780Z,10.15
2022-12-31T00:58:43.791Z,10.12
2022-12-31T01:01:12.850Z,10.08
2022-12-31T01:03:39.670Z,10.08
2022-12-31T01:06:06.973Z,10.07
2022-12-31T01:08:34.122Z,10.09
2022-12-31T01:11:20.603Z,10.08
2022-12-31T01:14:01.997Z,10.11
2022-12-31T01:16:34.780Z,10.10
2022-12-31T01:19:04.173Z,10.08
2022-12-31T01:21:31.359Z,10.03
2022-12-31T01:23:59.025Z,10.07
2022-12-31T01:26:26.353Z,10.09
2022-12-31T01:28:52.905Z,10.06
2022-12-31T01:31:21.299Z,10.09
2022-12-31T01:33:48.413Z,10.05
2022-12-31T01:36:25.514Z,10.02
2022-12-31T01:38:54.371Z,10.06
2022-12-31T01:41:28.176Z,10.15
2022-12-31T01:43:56.323Z,10.10
2022-12-31T01:46:44.746Z,10.04
2022-12-31T01:49:33.803Z,10.05
2022-12-31T01:52:08.862Z,10.03
2022-12-31T01:54:39.322Z,10.01
2022-12-31T01:57:08.596Z,9.97
2022-12-31T01:59:35.327Z,10.01
2022-12-31T02:02:02.502Z,9.99
2022-12-31T02:04:29.833Z,10.01
2022-12-31T02:07:00.405Z,9.98
2022-12-31T02:09:27.386Z,9.95
2022-12-31T02:11:54.448Z,9.95
2022-12-31T02:14:25.862Z,9.93
2022-12-31T02:17:17.611Z,9.92
2022-12-31T02:20:09.833Z,9.94
2022-12-31T02:23:10.939Z,9.90
2022-12-31T02:26:14.996Z,9.88
2022-12-31T02:29:12.580Z,9.86
2022-12-31T02:31:48.239Z,9.90
2022-12-31T02:34:27.607Z,9.87
2022-12-31T02:36:57.724Z,9.88
2022-12-31T02:39:24.627Z,9.84
2022-12-31T02:41:51.916Z,9.87
2022-12-31T02:44:26.918Z,9.87
2022-12-31T02:47:10.593Z,9.85
2022-12-31T02:49:57.816Z,9.84
2022-12-31T02:52:35.754Z,9.84
2022-12-31T02:55:22.680Z,9.79
2022-12-31T02:57:55.683Z,9.86
2022-12-31T03:00:41.518Z,9.79
2022-12-31T03:03:09.129Z,9.79
2022-12-31T03:05:41.028Z,9.75
2022-12-31T03:08:08.444Z,9.81
2022-12-31T03:10:35.440Z,9.82
2022-12-31T03:13:03.063Z,9.80
2022-12-31T03:15:32.126Z,9.79
2022-12-31T03:18:03.565Z,9.79
2022-12-31T03:21:02.958Z,9.77
2022-12-31T03:23:41.812Z,9.76
2022-12-31T03:26:11.058Z,9.73
2022-12-31T03:28:39.539Z,9.74
2022-12-31T03:31:06.954Z,9.74
2022-12-31T03:33:38.428Z,9.72
2022-12-31T03:36:14.500Z,9.72
2022-12-31T03:38:41.497Z,9.66
2022-12-31T03:41:10.800Z,9.77
2022-12-31T03:43:37.836Z,9.70
2022-12-31T03:46:04.497Z,9.71
2022-12-31T03:48:31.589Z,9.69
2022-12-31T03:50:58.612Z,9.72
2022-12-31T03:53:25.185Z,9.70
2022-12-31T03:55:55.025Z,9.64
2022-12-31T03:58:21.978Z,9.62
2022-12-31T04:00:53.108Z,9.63
2022-12-31T04:03:20.189Z,9.59
2022-12-31T04:05:53.419Z,9.61
2022-12-31T04:08:20.466Z,9.52
2022-12-31T04:10:47.075Z,9.52
2022-12-31T04:13:13.628Z,9.53
2022-12-31T04:15:40.670Z,9.55
2022-12-31T04:18:07.684Z,9.53
2022-12-31T04:20:34.235Z,9.50
2022-12-31T04:23:01.298Z,9.47
2022-12-31T04:25:27.837Z,9.44
2022-12-31T04:27:54.345Z,9.40
2022-12-31T04:30:20.919Z,9.38
2022-12-31T04:32:47.431Z,9.34
2022-12-31T04:35:14.032Z,9.31
2022-12-31T04:37:41.041Z,9.31
2022-12-31T04:40:09.277Z,9.30
2022-12-31T04:42:36.330Z,9.30
2022-12-31T04:45:03.059Z,9.33
2022-12-31T04:47:30.146Z,9.32
2022-12-31T04:49:56.703Z,9.32
2022-12-31T04:52:23.242Z,9.31
2022-12-31T04:54:49.770Z,9.23
2022-12-31T04:57:16.785Z,9.30
2022-12-31T04:59:43.329Z,9.25
2022-12-31T05:02:10.151Z,9.27
2022-12-31T05:04:36.839Z,9.25
2022-12-31T05:07:03.407Z,9.26
2022-12-31T05:09:31.226Z,9.25
2022-12-31T05:11:58.545Z,9.22
2022-12-31T05:14:25.799Z,9.30
2022-12-31T05:16:52.414Z,9.28
2022-12-31T05:19:19.131Z,9.29
2022-12-31T05:22:05.650Z,9.25
2022-12-31T05:24:32.530Z,9.26
2022-12-31T05:26:59.099Z,9.25
2022-12-31T05:29:25.708Z,9.24
2022-12-31T05:31:52.493Z,9.24
2022-12-31T05:34:19.200Z,9.25
2022-12-31T05:36:46.213Z,9.23
2022-12-31T05:39:12.751Z,9.22
2022-12-31T05:41:39.851Z,9.23
2022-12-31T05:44:06.418Z,9.23
2022-12-31T05:46:34.152Z,9.23
2022-12-31T05:49:01.721Z,9.22
2022-12-31T05:51:28.239Z,9.21
2022-12-31T05:53:54.771Z,9.20
2022-12-31T05:56:21.340Z,9.23
2022-12-31T05:58:47.874Z,9.26
2022-12-31T06:01:14.434Z,9.24
2022-12-31T06:03:44.718Z,9.24
2022-12-31T06:06:11.759Z,9.24
2022-12-31T06:08:38.973Z,9.30
2022-12-31T06:11:05.735Z,9.27
2022-12-31T06:13:32.763Z,9.36
2022-12-31T06:16:06.308Z,9.32
2022-12-31T06:18:32.925Z,9.34
2022-12-31T06:20:59.968Z,9.35
2022-12-31T06:23:27.102Z,9.36
2022-12-31T06:25:54.113Z,9.38
2022-12-31T06:28:20.870Z,9.45
2022-12-31T06:30:47.979Z,9.50
2022-12-31T06:33:14.539Z,9.48
2022-12-31T06:35:42.074Z,9.53
2022-12-31T06:38:08.702Z,9.56
2022-12-31T06:40:37.582Z,9.56
2022-12-31T06:43:04.099Z,9.58
2022-12-31T06:45:30.689Z,9.58
2022-12-31T06:47:57.186Z,9.63
2022-12-31T06:50:23.723Z,9.66
2022-12-31T06:52:50.276Z,9.75
2022-12-31T06:55:17.243Z,9.80
2022-12-31T06:57:44.883Z,9.83
2022-12-31T07:00:12.170Z,9.92
2022-12-31T07:03:11.631Z,10.01
2022-12-31T07:05:49.661Z,10.02
2022-12-31T07:08:51.578Z,10.07
2022-12-31T07:11:23.215Z,10.15
2022-12-31T07:14:01.291Z,10.14
2022-12-31T07:16:50.384Z,10.27
2022-12-31T07:19:19.871Z,10.33
2022-12-31T07:21:49.638Z,10.30
2022-12-31T07:24:17.941Z,10.39
2022-12-31T07:27:05.965Z,10.41
2022-12-31T07:29:32.975Z,10.49
2022-12-31T07:32:21.692Z,10.52
2022-12-31T07:35:16.745Z,10.59
2022-12-31T07:37:52.478Z,10.61
2022-12-31T07:40:30.202Z,10.56
2022-12-31T07:43:13.923Z,10.63
2022-12-31T07:45:40.892Z,10.72
2022-12-31T07:48:22.907Z,10.71
2022-12-31T07:50:49.811Z,10.73
2022-12-31T07:53:16.762Z,10.82
2022-12-31T07:55:43.870Z,10.82
2022-12-31T07:58:25.649Z,10.89
2022-12-31T08:00:55.684Z,10.92
2022-12-31T08:03:24.985Z,10.96
2022-12-31T08:06:09.951Z,11.01
2022-12-31T08:08:53.908Z,11.06
2022-12-31T08:11:38.040Z,11.10
2022-12-31T08:14:10.582Z,11.19
2022-12-31T08:16:37.528Z,11.15
2022-12-31T08:19:05.202Z,11.14
2022-12-31T08:21:52.598Z,11.12
2022-12-31T08:24:36.020Z,11.22
2022-12-31T08:27:12.320Z,11.21
2022-12-31T08:29:48.260Z,11.18
2022-12-31T08:32:46.979Z,11.19
2022-12-31T08:35:28.226Z,11.19
2022-12-31T08:38:26.009Z,11.18
2022-12-31T08:41:10.856Z,11.18
2022-12-31T08:44:09.500Z,11.27
2022-12-31T08:47:17.997Z,11.18
2022-12-31T08:49:44.777Z,11.17
2022-12-31T08:52:20.073Z,11.17
2022-12-31T08:54:46.815Z,11.15
2022-12-31T08:57:26.886Z,11.12
2022-12-31T08:59:58.953Z,11.14
2022-12-31T09:02:34.585Z,11.10
2022-12-31T09:05:25.155Z,11.12
2022-12-31T09:08:13.576Z,11.05
2022-12-31T09:10:40.028Z,11.05
2022-12-31T09:13:31.296Z,11.00
2022-12-31T09:16:19.633Z,11.08
2022-12-31T09:18:46.271Z,11.06
2022-12-31T09:21:14.776Z,11.07
2022-12-31T09:23:42.005Z,11.10
2022-12-31T09:26:40.423Z,11.16
2022-12-31T09:29:14.709Z,11.24
2022-12-31T09:31:58.700Z,11.30
2022-12-31T09:34:35.858Z,11.28
2022-12-31T09:37:17.877Z,11.36
2022-12-31T09:39:47.519Z,11.41
2022-12-31T09:42:38.994Z,11.45
2022-12-31T09:45:36.811Z,11.55
2022-12-31T09:48:03.839Z,11.63
2022-12-31T09:50:49.433Z,11.61
2022-12-31T09:53:39.586Z,11.68
2022-12-31T09:56:35.379Z,11.74
2022-12-31T09:59:14.588Z,11.72
2022-12-31T10:01:50.351Z,11.70
2022-12-31T10:04:33.481Z,11.77
2022-12-31T10:07:12.606Z,11.75
2022-12-31T10:10:02.929Z,11.78
2022-12-31T10:12:40.594Z,11.74
2022-12-31T10:15:29.191Z,11.86
2022-12-31T10:17:59.520Z,11.82
2022-12-31T10:20:47.568Z,11.84
2022-12-31T10:23:53.219Z,11.84
2022-12-31T10:26:28.933Z,11.82
2022-12-31T10:29:09.472Z,11.75
2022-12-31T10:32:13.636Z,11.81
2022-12-31T10:35:08.229Z,11.75
2022-12-31T10:37:54.314Z,11.73
2022-12-31T10:40:53.337Z,11.86
2022-12-31T10:43:54.038Z,11.93
2022-12-31T10:46:39.102Z,11.96
2022-12-31T10:49:26.056Z,12.00
2022-12-31T10:51:59.249Z,11.94
2022-12-31T10:54:47.667Z,11.99
2022-12-31T10:57:49.347Z,12.05
2022-12-31T11:00:23.729Z,12.15
2022-12-31T11:02:53.221Z,12.20
2022-12-31T11:05:25.711Z,12.24
2022-12-31T11:08:14.047Z,12.31
2022-12-31T11:11:05.575Z,12.36
2022-12-31T11:13:42.951Z,12.33
2022-12-31T11:16:42.105Z,12.37
2022-12-31T11:19:23.593Z,12.34
2022-12-31T11:22:13.482Z,12.39
2022-12-31T11:25:12.571Z,12.38
2022-12-31T11:27:49.543Z,12.34
2022-12-31T11:30:19.439Z,12.33
2022-12-31T11:32:57.876Z,12.31
2022-12-31T11:35:32.204Z,12.32
2022-12-31T11:38:22.707Z,12.30
2022-12-31T11:40:59.963Z,12.33
2022-12-31T11:43:35.531Z,12.32
2022-12-31T11:46:20.474Z,12.37
2022-12-31T11:48:58.964Z,12.27
2022-12-31T11:52:00.649Z,12.25
2022-12-31T11:54:37.605Z,12.28
2022-12-31T11:57:28.359Z,12.24
2022-12-31T11:59:59.386Z,12.19
2022-12-31T12:02:37.487Z,12.17
2022-12-31T12:05:11.044Z,12.16
2022-12-31T12:07:38.172Z,12.20
2022-12-31T12:10:36.836Z,12.16
2022-12-31T12:13:26.047Z,12.10
2022-12-31T12:15:58.781Z,12.13
2022-12-31T12:18:34.014Z,12.12
2022-12-31T12:21:07.317Z,12.04
2022-12-31T12:23:33.942Z,12.09
2022-12-31T12:26:01.042Z,12.04
2022-12-31T12:28:30.501Z,12.04
2022-12-31T12:31:03.363Z,12.01
2022-12-31T12:33:42.098Z,12.05
2022-12-31T12:36:11.841Z,12.01
2022-12-31T12:38:39.042Z,12.02
2022-12-31T12:41:10.303Z,12.07
2022-12-31T12:43:38.187Z,12.06
2022-12-31T12:46:08.235Z,12.05
2022-12-31T12:48:39.086Z,12.02
2022-12-31T12:51:47.295Z,12.05
2022-12-31T12:54:34.291Z,12.12
2022-12-31T12:57:16.144Z,12.18
2022-12-31T13:00:15.616Z,12.24
2022-12-31T13:03:09.885Z,12.34
2022-12-31T13:06:14.127Z,12.38
2022-12-31T13:08:55.947Z,12.38
2022-12-31T13:11:33.871Z,12.40
2022-12-31T13:14:03.133Z,12.40
2022-12-31T13:16:41.831Z,12.35
2022-12-31T13:19:26.859Z,12.45
2022-12-31T13:21:57.998Z,12.37
2022-12-31T13:24:37.023Z,12.37
2022-12-31T13:27:23.889Z,12.30
2022-12-31T13:29:52.374Z,12.28
2022-12-31T13:32:28.693Z,12.27
2022-12-31T13:35:02.677Z,12.32
2022-12-31T13:37:39.607Z,12.28
2022-12-31T13:40:26.799Z,12.33
2022-12-31T13:43:00.113Z,12.38
2022-12-31T13:45:36.116Z,12.33
2022-12-31T13:48:13.258Z,12.32
2022-12-31T13:50:49.652Z,12.30
2022-12-31T13:53:32.742Z,12.32
2022-12-31T13:56:05.011Z,12.28
2022-12-31T13:58:35.663Z,12.32
2022-12-31T14:01:11.597Z,12.35
2022-12-31T14:03:40.438Z,12.35
2022-12-31T14:06:19.226Z,12.40
2022-12-31T14:08:46.089Z,12.40
2022-12-31T14:11:21.639Z,12.36
2022-12-31T14:14:12.499Z,12.35
2022-12-31T14:16:59.804Z,12.22
2022-12-31T14:20:03.716Z,12.34
2022-12-31T14:22:39.042Z,12.37
2022-12-31T14:25:18.656Z,12.35
2022-12-31T14:27:47.851Z,12.31
2022-12-31T14:30:23.241Z,12.27
2022-12-31T14:33:07.185Z,12.30
2022-12-31T14:35:47.327Z,12.27
2022-12-31T14:38:39.330Z,12.24
2022-12-31T14:41:15.877Z,12.27
2022-12-31T14:44:10.392Z,12.25
2022-12-31T14:46:49.046Z,12.21
2022-12-31T14:49:39.200Z,12.16
2022-12-31T14:52:32.285Z,12.16
2022-12-31T14:55:03.381Z,12.18
2022-12-31T14:58:16.794Z,12.13
2022-12-31T15:00:40.114Z,12.11
2022-12-31T15:03:24.354Z,12.04
2022-12-31T15:06:28.317Z,12.03
2022-12-31T15:09:13.587Z,12.05
2022-12-31T15:11:42.989Z,12.05
2022-12-31T15:14:37.410Z,12.00
2022-12-31T15:17:14.621Z,12.03
2022-12-31T15:20:02.164Z,12.00
2022-12-31T15:22:43.986Z,12.00
2022-12-31T15:25:38.656Z,11.99
2022-12-31T15:28:27.041Z,11.93
2022-12-31T15:30:56.644Z,11.86
2022-12-31T15:33:33.037Z,11.89
2022-12-31T15:36:16.519Z,11.84
2022-12-31T15:38:43.415Z,11.82
2022-12-31T15:41:16.859Z,11.75
2022-12-31T15:44:13.807Z,11.81
2022-12-31T15:46:42.684Z,11.77
2022-12-31T15:49:18.307Z,11.76
2022-12-31T15:51:50.427Z,11.74
2022-12-31T15:54:42.043Z,11.72
2022-12-31T15:57:17.934Z,11.79
2022-12-31T15:59:45.338Z,11.73
2022-12-31T16:02:21.954Z,11.74
2022-12-31T16:04:49.943Z,11.72
2022-12-31T16:07:17.832Z,11.68
2022-12-31T16:09:51.827Z,11.71
2022-12-31T16:12:27.781Z,11.71
2022-12-31T16:14:59.547Z,11.68
2022-12-31T16:17:31.472Z,11.68
2022-12-31T16:20:00.127Z,11.68
2022-12-31T16:22:37.275Z,11.65
2022-12-31T16:25:34.337Z,11.58
2022-12-31T16:27:54.169Z,11.53
2022-12-31T16:30:22.481Z,11.51
2022-12-31T16:32:51.355Z,11.49
2022-12-31T16:35:27.982Z,11.52
2022-12-31T16:38:17.427Z,11.52
2022-12-31T16:40:59.391Z,11.49
2022-12-31T16:43:27.316Z,11.55
2022-12-31T16:45:58.075Z,11.61
2022-12-31T16:48:25.123Z,11.59
2022-12-31T16:50:55.833Z,11.59
2022-12-31T16:53:26.592Z,11.70
2022-12-31T16:56:00.014Z,11.72
2022-12-31T16:58:37.253Z,11.81
2022-12-31T17:01:16.912Z,11.78
2022-12-31T17:03:58.255Z,11.77
2022-12-31T17:06:27.143Z,11.72
2022-12-31T17:08:54.839Z,11.76
2022-12-31T17:11:30.494Z,11.79
2022-12-31T17:14:06.197Z,11.83
2022-12-31T17:16:35.988Z,11.77
2022-12-31T17:19:03.391Z,11.90
2022-12-31T17:21:32.204Z,11.92
2022-12-31T17:24:06.157Z,11.88
2022-12-31T17:26:35.912Z,11.90
2022-12-31T17:29:05.910Z,11.81
2022-12-31T17:31:34.744Z,11.78
2022-12-31T17:34:21.774Z,11.77
2022-12-31T17:37:14.475Z,11.81
2022-12-31T17:39:48.464Z,11.78
2022-12-31T17:42:24.793Z,11.77
2022-12-31T17:44:56.033Z,11.80
2022-12-31T17:47:22.767Z,11.79
2022-12-31T17:49:49.475Z,11.76
2022-12-31T17:52:16.457Z,11.88
2022-12-31T17:54:43.050Z,11.89
2022-12-31T17:57:23.694Z,11.85
2022-12-31T17:59:50.778Z,11.75
2022-12-31T18:02:17.500Z,11.67
2022-12-31T18:04:44.666Z,11.74
2022-12-31T18:07:11.254Z,11.73
2022-12-31T18:09:38.295Z,11.73
2022-12-31T18:12:06.967Z,11.79
2022-12-31T18:14:34.009Z,11.97
2022-12-31T18:17:00.901Z,12.05
2022-12-31T18:20:02.962Z,11.90
2022-12-31T18:22:16.339Z,11.76
2022-12-31T18:24:43.700Z,11.92
2022-12-31T18:27:16.638Z,11.83
2022-12-31T18:29:43.695Z,12.02
2022-12-31T18:32:25.281Z,12.08
2022-12-31T18:34:52.031Z,12.03
2022-12-31T18:37:22.259Z,12.14
2022-12-31T18:39:49.781Z,11.97
2022-12-31T18:42:18.299Z,12.01
2022-12-31T18:44:46.438Z,12.08
2022-12-31T18:47:15.287Z,12.06
2022-12-31T18:49:42.153Z,12.18
2022-12-31T18:52:14.909Z,12.24
2022-12-31T18:54:42.355Z,12.21
2022-12-31T18:57:13.769Z,12.11
2022-12-31T18:59:41.275Z,12.11
2022-12-31T19:02:21.098Z,12.17
2022-12-31T19:04:48.148Z,12.12
2022-12-31T19:07:14.718Z,12.12
2022-12-31T19:09:46.327Z,12.15
2022-12-31T19:12:14.847Z,12.11
2022-12-31T19:14:41.481Z,12.11
2022-12-31T19:19:34.663Z,12.22
2022-12-31T19:22:01.543Z,12.33
2022-12-31T19:24:28.580Z,12.22
2022-12-31T19:26:55.555Z,12.28
2022-12-31T19:29:24.554Z,12.12
2022-12-31T19:31:51.793Z,12.20
2022-12-31T19:34:18.383Z,12.20
2022-12-31T19:36:45.578Z,12.33
2022-12-31T19:39:16.254Z,12.29
2022-12-31T19:41:43.743Z,12.41
2022-12-31T19:44:18.213Z,12.25
2022-12-31T19:46:46.160Z,12.25
2022-12-31T19:49:14.534Z,12.23
2022-12-31T19:51:41.727Z,12.14
2022-12-31T19:54:09.453Z,12.17
2022-12-31T19:56:36.496Z,12.21
2022-12-31T19:59:07.649Z,12.24
2022-12-31T20:01:34.919Z,12.31
2022-12-31T20:04:02.433Z,12.22
2022-12-31T20:06:29.523Z,12.14
2022-12-31T20:08:56.163Z,12.14
2022-12-31T20:11:24.442Z,12.23
2022-12-31T20:13:53.590Z,12.12
2022-12-31T20:16:23.460Z,12.17
2022-12-31T20:18:50.621Z,12.04
2022-12-31T20:21:20.399Z,12.25
2022-12-31T20:23:48.556Z,12.10
2022-12-31T20:26:15.618Z,12.16
2022-12-31T20:28:42.167Z,12.20
2022-12-31T20:31:14.473Z,12.19
2022-12-31T20:33:42.088Z,12.20
2022-12-31T20:36:11.229Z,12.21
2022-12-31T20:38:38.478Z,12.14
2022-12-31T20:41:08.044Z,12.16
2022-12-31T20:43:36.034Z,12.08
2022-12-31T20:46:15.346Z,12.07
2022-12-31T20:48:43.568Z,12.05
2022-12-31T20:51:10.603Z,12.07
2022-12-31T20:53:37.681Z,12.02
2022-12-31T20:56:09.411Z,11.98
2022-12-31T20:58:36.788Z,11.98
2022-12-31T21:01:07.833Z,12.03
2022-12-31T21:06:28.117Z,12.11
2022-12-31T21:09:01.604Z,12.01
2022-12-31T21:11:47.402Z,11.98
2022-12-31T21:14:14.386Z,12.00
2022-12-31T21:16:40.967Z,11.91
2022-12-31T21:19:07.742Z,11.91
2022-12-31T21:21:34.311Z,11.84
2022-12-31T21:24:00.907Z,11.90
2022-12-31T21:26:28.456Z,11.97
2022-12-31T21:28:55.479Z,12.02
2022-12-31T21:31:22.654Z,11.91
2022-12-31T21:33:49.268Z,12.04
2022-12-31T21:36:17.064Z,11.97
2022-12-31T21:38:44.131Z,12.06
2022-12-31T21:41:33.549Z,12.07
2022-12-31T21:44:01.753Z,12.14
2022-12-31T21:46:28.995Z,12.10
2022-12-31T21:49:00.258Z,12.06
2022-12-31T21:51:27.871Z,12.21
2022-12-31T21:53:54.494Z,12.23
2022-12-31T21:56:22.608Z,12.16
2022-12-31T21:59:13.398Z,12.19
2022-12-31T22:01:59.217Z,12.20
2022-12-31T22:05:00.901Z,12.15
2022-12-31T22:07:13.253Z,12.23
2022-12-31T22:09:39.875Z,12.17
2022-12-31T22:12:07.112Z,12.20
2022-12-31T22:14:33.652Z,12.24
2022-12-31T22:17:00.304Z,12.15
2022-12-31T22:19:26.853Z,12.20
2022-12-31T22:21:53.860Z,12.14
2022-12-31T22:24:20.859Z,12.11
2022-12-31T22:26:47.419Z,12.07
2022-12-31T22:29:14.615Z,12.01
2022-12-31T22:31:41.661Z,12.06
2022-12-31T22:34:09.030Z,11.97
2022-12-31T22:36:35.643Z,11.96
2022-12-31T22:39:02.689Z,12.01
2022-12-31T22:41:29.270Z,12.00
2022-12-31T22:44:03.208Z,11.95
2022-12-31T22:46:30.914Z,11.93
2022-12-31T22:48:59.559Z,11.99
2022-12-31T22:51:55.794Z,11.99
2022-12-31T22:54:14.976Z,12.12
2022-12-31T22:56:41.831Z,12.18
2022-12-31T22:59:09.186Z,12.23
2022-12-31T23:01:36.649Z,12.20
2022-12-31T23:04:03.880Z,12.34
2022-12-31T23:06:30.902Z,12.32
2022-12-31T23:09:16.037Z,12.42
2022-12-31T23:11:45.670Z,12.48
2022-12-31T23:14:35.812Z,12.35
2022-12-31T23:17:30.485Z,12.12
2022-12-31T23:20:18.948Z,12.04
2022-12-31T23:23:05.394Z,12.06
2022-12-31T23:25:33.458Z,11.97
2022-12-31T23:28:00.516Z,11.92
2022-12-31T23:30:27.587Z,11.90
2022-12-31T23:32:54.665Z,11.83
2022-12-31T23:35:21.746Z,11.84
2022-12-31T23:37:48.803Z,12.00
2022-12-31T23:40:21.242Z,11.92
2022-12-31T23:42:49.698Z,11.92
2022-12-31T23:45:16.919Z,11.90
2022-12-31T23:47:43.975Z,11.84
2022-12-31T23:50:10.592Z,11.77
2022-12-31T23:52:37.623Z,11.69
2022-12-31T23:55:04.516Z,11.59
2022-12-31T23:57:31.111Z,11.69
2022-12-31T23:59:58.290Z,11.72
